Time;durP1;ratioP1;P1;durP2;ratioP2;P2;SDS_P1;SDS_P2;PMS_P1;PMS_P2;Temp;Humidity;BMP_temperature;BMP_pressure;BME280_temperature;BME280_humidity;BME280_pressure;Samples;Min_cycle;Max_cycle;Signal;HPM_P1;HPM_P2
2021/04/08 00:04:02;;;;;;;2.97;1.15;;;;;;;1.79;66.28;97590.63;10100858;29;20056;-79
2021/04/08 00:09:21;;;;;;;2.35;0.80;;;;;;;1.90;66.24;97600.59;10114359;29;20055;-78
2021/04/08 00:14:41;;;;;;;1.83;0.85;;;;;;;1.94;66.67;97596.25;10088038;29;20045;-78
2021/04/08 00:20:20;;;;;;;2.55;0.90;;;;;;;2.00;66.26;97607.84;10113561;29;20052;-78
2021/04/08 00:25:40;;;;;;;2.42;0.93;;;;;;;1.96;66.36;97610.22;10101266;29;20130;-79
2021/04/08 00:31:00;;;;;;;2.13;0.75;;;;;;;1.90;66.02;97615.09;10101022;29;20044;-78
2021/04/08 00:36:22;;;;;;;1.80;0.90;;;;;;;1.85;66.07;97620.78;10116208;29;20044;-79
2021/04/08 00:41:42;;;;;;;2.70;0.70;;;;;;;1.80;65.86;97627.88;10114356;29;20060;-79
2021/04/08 00:47:02;;;;;;;2.22;0.60;;;;;;;1.83;65.74;97635.03;10101474;29;20048;-79
2021/04/08 00:52:22;;;;;;;1.85;0.70;;;;;;;1.86;65.62;97641.50;10101971;29;20055;-79
2021/04/08 00:57:42;;;;;;;3.63;0.90;;;;;;;1.88;65.79;97653.44;10099940;29;20049;-79
2021/04/08 01:10:54;;;;;;;1.98;0.80;;;;;;;1.89;65.46;97657.69;10139669;29;20412;-79
2021/04/08 01:16:23;;;;;;;1.55;0.50;;;;;;;1.88;65.28;97661.72;10113732;29;20457;-79
2021/04/08 01:22:49;;;;;;;3.97;0.88;;;;;;;1.88;65.30;97671.97;10121363;29;20539;-79
2021/04/08 01:28:31;;;;;;;3.17;0.70;;;;;;;1.87;65.25;97676.75;10125427;29;20076;-79
2021/04/08 01:33:56;;;;;;;1.17;0.40;;;;;;;1.82;65.51;97687.88;10112116;29;20056;-79
2021/04/08 01:39:15;;;;;;;2.75;0.77;;;;;;;1.72;65.12;97690.38;10112611;29;20056;-79
2021/04/08 01:45:06;;;;;;;2.20;0.90;;;;;;;1.82;65.25;97694.13;10120442;29;20056;-79
2021/04/08 01:50:25;;;;;;;3.30;1.15;;;;;;;1.87;65.53;97701.53;10112316;29;20053;-79
2021/04/08 01:55:45;;;;;;;2.38;0.70;;;;;;;1.97;64.97;97708.03;10112612;29;20048;-79
2021/04/08 02:01:05;;;;;;;3.55;0.60;;;;;;;1.95;65.05;97712.59;10101738;29;20096;-79
2021/04/08 02:06:27;;;;;;;2.38;0.60;;;;;;;1.92;63.94;97725.41;10107076;29;20053;-79
2021/04/08 02:11:47;;;;;;;3.88;0.73;;;;;;;1.79;63.85;97724.75;10120072;29;20045;-79
2021/04/08 02:17:08;;;;;;;5.07;0.85;;;;;;;1.73;64.11;97735.88;10119493;29;20052;-79
2021/04/08 02:22:27;;;;;;;1.73;0.40;;;;;;;1.65;64.39;97746.81;10106634;29;20049;-79
2021/04/08 02:27:47;;;;;;;2.22;0.50;;;;;;;1.72;64.08;97757.16;10106082;29;20049;-78
2021/04/08 02:33:06;;;;;;;2.50;0.60;;;;;;;1.82;64.39;97760.19;10105641;29;20052;-79
2021/04/08 02:38:32;;;;;;;2.45;0.57;;;;;;;1.87;64.59;97766.84;10103882;29;20064;-79
2021/04/08 02:43:52;;;;;;;3.33;0.82;;;;;;;1.87;64.82;97759.34;10105093;29;20532;-80
2021/04/08 02:49:15;;;;;;;2.45;0.60;;;;;;;1.91;64.13;97756.97;10117687;29;20048;-79
2021/04/08 02:54:50;;;;;;;1.80;0.43;;;;;;;1.97;64.35;97774.09;10118493;29;20100;-79
2021/04/08 03:00:11;;;;;;;2.65;0.65;;;;;;;1.92;63.79;97766.72;10118077;29;20067;-79
2021/04/08 03:05:33;;;;;;;2.30;0.45;;;;;;;1.81;62.93;97774.47;10117632;29;20044;-78
2021/04/08 03:10:53;;;;;;;2.72;0.60;;;;;;;1.68;62.75;97789.03;10118725;29;20041;-78
2021/04/08 03:16:17;;;;;;;3.95;0.52;;;;;;;1.54;62.87;97784.81;10103753;29;20044;-79
2021/04/08 03:21:37;;;;;;;2.75;0.40;;;;;;;1.41;62.93;97800.09;10106342;29;20500;-79
2021/04/08 03:27:26;;;;;;;1.95;0.47;;;;;;;1.20;62.70;97801.28;10134623;29;20127;-78
2021/04/08 03:32:46;;;;;;;2.13;0.57;;;;;;;1.06;62.80;97811.53;10105530;29;20044;-79
2021/04/08 03:38:06;;;;;;;3.33;0.50;;;;;;;0.93;62.73;97811.53;10091595;29;20491;-78
2021/04/08 03:43:27;;;;;;;2.05;0.43;;;;;;;0.83;63.22;97813.97;10118013;29;20048;-79
2021/04/08 03:48:51;;;;;;;2.65;0.30;;;;;;;0.71;63.21;97824.41;10118245;29;20053;-79
2021/04/08 03:54:15;;;;;;;1.73;0.47;;;;;;;0.64;63.05;97832.53;10104664;29;20052;-79
2021/04/08 03:59:34;;;;;;;2.30;0.45;;;;;;;0.59;62.71;97839.63;10103385;29;20044;-79
2021/04/08 04:05:27;;;;;;;2.55;0.50;;;;;;;0.75;62.40;97846.81;10115566;29;20045;-79
2021/04/08 04:10:49;;;;;;;4.40;0.55;;;;;;;0.75;62.87;97852.31;10117733;29;20051;-78
2021/04/08 04:16:09;;;;;;;2.17;0.40;;;;;;;0.70;62.74;97866.16;10103515;29;20048;-79
2021/04/08 04:22:00;;;;;;;1.85;0.50;;;;;;;0.56;62.05;97870.88;10112777;29;20056;-78
2021/04/08 04:27:21;;;;;;;1.42;0.20;;;;;;;0.49;62.04;97864.00;10115574;29;20048;-79
2021/04/08 04:32:40;;;;;;;2.10;0.38;;;;;;;0.44;62.74;97873.06;10103927;29;20457;-79
2021/04/08 04:38:00;;;;;;;2.58;0.30;;;;;;;0.52;62.65;97878.69;10100560;29;20049;-78
2021/04/08 04:43:20;;;;;;;1.35;0.30;;;;;;;0.73;62.26;97879.59;10103027;29;20392;-79
2021/04/08 04:48:40;;;;;;;3.80;0.50;;;;;;;1.11;62.65;97887.69;10089624;29;20504;-79
2021/04/08 04:53:59;;;;;;;4.15;0.60;;;;;;;1.47;61.73;97895.53;10101106;29;20052;-79
2021/04/08 04:59:19;;;;;;;4.20;0.40;;;;;;;1.70;61.24;97896.56;10099677;29;20044;-79
2021/04/08 05:04:39;;;;;;;2.90;0.60;;;;;;;2.17;60.80;97915.13;10099709;29;20053;-78
2021/04/08 05:09:59;;;;;;;3.90;0.50;;;;;;;2.73;60.62;97913.84;10094493;29;20485;-79
2021/04/08 05:15:19;;;;;;;3.15;0.40;;;;;;;3.16;58.92;97919.53;10098725;29;20500;-80
2021/04/08 05:20:39;;;;;;;2.67;0.50;;;;;;;3.53;58.91;97925.84;10119309;29;20041;-79
2021/04/08 05:26:02;;;;;;;2.90;0.70;;;;;;;4.39;58.37;97937.47;10106860;29;20044;-79
2021/04/08 05:31:22;;;;;;;3.63;0.80;;;;;;;5.98;55.98;97941.56;10058953;29;20056;-79
2021/04/08 05:36:42;;;;;;;4.20;1.33;;;;;;;10.47;52.91;97938.81;10057825;29;20045;-78
2021/04/08 05:42:02;;;;;;;2.67;1.05;;;;;;;12.49;51.38;97950.94;10099981;29;20513;-79
2021/04/08 05:47:22;;;;;;;3.47;0.90;;;;;;;18.98;43.49;97971.91;10096679;29;20044;-79
2021/04/08 05:53:04;;;;;;;2.30;0.80;;;;;;;14.01;39.02;97986.75;10085819;29;20052;-79
2021/04/08 05:58:24;;;;;;;3.40;0.82;;;;;;;10.51;39.29;97981.69;10099446;29;20052;-79
2021/04/08 06:05:06;;;;;;;4.07;0.73;;;;;;;8.60;43.38;97992.47;10105214;29;20040;-79
2021/04/08 06:10:54;;;;;;;4.38;0.98;;;;;;;12.94;43.75;97995.03;10110778;29;20143;-80
2021/04/08 06:16:18;;;;;;;3.90;1.00;;;;;;;20.68;37.14;98001.25;10095313;29;20049;-80
2021/04/08 06:21:41;;;;;;;4.97;1.13;;;;;;;28.61;25.90;98004.22;10095469;29;20100;-80
2021/04/08 06:27:02;;;;;;;3.70;0.90;;;;;;;33.96;16.81;98026.88;10108949;29;20044;-80
2021/04/08 06:32:22;;;;;;;2.80;0.68;;;;;;;37.55;11.40;98031.97;10108745;29;20499;-81
2021/04/08 06:37:42;;;;;;;3.70;0.90;;;;;;;40.34;8.35;98041.50;10095505;29;20127;-78
2021/04/08 06:43:03;;;;;;;2.60;0.60;;;;;;;41.21;6.67;98045.28;10109633;29;20051;-78
2021/04/08 06:48:46;;;;;;;2.70;0.50;;;;;;;39.90;6.26;98039.16;10111606;29;20048;-80
2021/04/08 06:54:06;;;;;;;2.17;0.60;;;;;;;34.90;7.99;98058.06;10106614;29;20132;-80
2021/04/08 06:59:26;;;;;;;2.65;0.60;;;;;;;33.13;7.55;98064.59;10090690;29;20418;-77
2021/04/08 07:04:47;;;;;;;2.95;0.85;;;;;;;26.33;10.23;98055.28;10114903;29;20037;-79
2021/04/08 07:10:07;;;;;;;1.63;0.40;;;;;;;21.79;12.96;98060.66;10113450;29;20055;-80
2021/04/08 07:15:27;;;;;;;1.95;0.45;;;;;;;16.88;14.80;98069.44;10100288;29;20049;-80
2021/04/08 07:20:48;;;;;;;2.13;0.50;;;;;;;14.40;18.38;98076.00;10100055;29;20373;-79
2021/04/08 07:26:10;;;;;;;2.05;0.52;;;;;;;16.31;18.88;98080.72;10113044;29;20068;-77
2021/04/08 07:31:32;;;;;;;1.77;0.40;;;;;;;16.31;19.05;98089.91;10100443;29;20044;-79
2021/04/08 07:36:53;;;;;;;3.60;0.70;;;;;;;18.42;18.80;98101.09;10113100;29;20076;-79
2021/04/08 07:42:15;;;;;;;2.40;0.68;;;;;;;22.27;17.21;98098.25;10099515;29;20088;-78
2021/04/08 07:47:44;;;;;;;2.17;0.50;;;;;;;21.97;15.78;98097.41;10112394;29;20044;-78
2021/04/08 07:53:05;;;;;;;3.22;0.70;;;;;;;21.74;17.14;98115.22;10087330;29;20045;-78
2021/04/08 07:58:24;;;;;;;3.60;0.60;;;;;;;18.44;16.20;98115.34;10106741;29;20060;-79
2021/04/08 08:03:44;;;;;;;4.85;0.80;;;;;;;18.38;17.08;98117.91;10111872;29;20049;-80
2021/04/08 08:09:05;;;;;;;4.05;0.98;;;;;;;15.19;18.40;98131.09;10099129;29;20508;-80
2021/04/08 08:14:35;;;;;;;3.33;0.80;;;;;;;13.05;20.63;98142.84;10102548;29;20055;-79
2021/04/08 08:20:23;;;;;;;1.92;0.60;;;;;;;11.22;21.93;98158.44;10123930;29;20044;-78
2021/04/08 08:25:43;;;;;;;3.22;0.70;;;;;;;10.40;22.49;98171.31;10121620;29;20036;-81
2021/04/08 08:31:04;;;;;;;5.72;0.50;;;;;;;9.83;23.67;98178.84;10156282;29;20071;-83
2021/04/08 08:36:23;;;;;;;2.22;0.50;;;;;;;9.00;24.70;98183.47;10856510;23;20057;-84
2021/04/08 08:41:45;;;;;;;2.60;0.60;;;;;;;8.25;25.39;98206.59;10147121;29;20037;-84
2021/04/08 08:53:51;;;;;;;2.20;0.60;;;;;;;8.18;28.25;98204.63;11503387;23;20051;-81
2021/04/08 08:59:23;;;;;;;3.33;0.93;;;;;;;14.35;29.59;98220.31;10138589;23;20070;-75
2021/04/08 09:04:44;;;;;;;3.38;0.80;;;;;;;31.11;17.26;98218.53;10070586;29;20045;-76
2021/04/08 09:10:05;;;;;;;2.83;0.60;;;;;;;36.51;12.01;98238.91;10083711;29;20045;-77
2021/04/08 09:15:24;;;;;;;1.95;0.60;;;;;;;43.07;6.59;98235.50;10070702;29;20049;-77
2021/04/08 09:20:44;;;;;;;1.65;0.43;;;;;;;43.28;3.40;98232.81;10083528;29;20057;-77
2021/04/08 09:26:03;;;;;;;3.65;0.70;;;;;;;30.89;6.36;98237.41;10083321;29;20127;-77
2021/04/08 09:31:25;;;;;;;2.67;0.40;;;;;;;22.56;10.41;98233.44;10083277;29;20377;-79
2021/04/08 09:36:44;;;;;;;2.28;0.40;;;;;;;17.95;13.59;98248.78;10096234;29;20056;-77
2021/04/08 09:42:04;;;;;;;4.45;0.70;;;;;;;15.37;16.29;98255.84;10069957;29;20045;-80
2021/04/08 09:47:34;;;;;;;3.35;0.47;;;;;;;14.04;17.60;98250.06;10109222;29;20049;-78
2021/04/08 09:52:55;;;;;;;4.25;0.60;;;;;;;15.66;18.37;98263.84;10108948;29;20049;-80
2021/04/08 09:58:23;;;;;;;3.15;0.50;;;;;;;16.61;17.65;98253.44;10082405;29;20060;-81
2021/04/08 10:03:43;;;;;;;3.95;0.60;;;;;;;17.60;17.81;98260.50;10095504;29;20493;-79
2021/04/08 10:09:16;;;;;;;2.85;0.50;;;;;;;19.83;16.20;98273.81;10095456;29;20049;-76
2021/04/08 10:14:36;;;;;;;3.35;0.68;;;;;;;15.71;17.96;98276.03;10083231;29;20041;-77
2021/04/08 10:19:57;;;;;;;3.67;0.65;;;;;;;16.07;19.09;98277.31;10071319;29;20045;-76
2021/04/08 10:25:16;;;;;;;2.63;0.60;;;;;;;15.80;19.32;98291.28;10104368;29;20060;-79
2021/04/08 10:30:39;;;;;;;3.90;0.60;;;;;;;14.24;20.06;98294.78;10093788;29;20048;-78
2021/04/08 10:42:20;;;;;;;4.35;0.80;;;;;;;15.79;20.67;98295.47;11024315;23;20535;-80
2021/04/08 10:54:13;;;;;;;3.30;0.70;;;;;;;15.33;20.22;98303.41;10586260;24;20043;-80
2021/04/08 10:59:33;;;;;;;2.50;0.52;;;;;;;16.79;19.67;98315.66;10171208;29;20048;-80
2021/04/08 11:05:01;;;;;;;2.40;0.50;;;;;;;15.90;19.58;98322.81;10141136;29;20104;-81
2021/04/08 11:10:27;;;;;;;3.20;0.70;;;;;;;15.22;21.91;98320.31;10126317;29;20123;-80
2021/04/08 11:15:46;;;;;;;3.47;0.60;;;;;;;15.84;21.10;98317.59;10125158;29;20044;-80
2021/04/08 11:21:06;;;;;;;2.55;0.68;;;;;;;15.28;21.99;98306.63;10140154;29;20051;-79
2021/04/08 11:26:27;;;;;;;3.70;0.82;;;;;;;16.47;21.31;98306.22;10126353;29;20036;-79
2021/04/08 11:32:11;;;;;;;3.25;0.98;;;;;;;16.61;20.70;98304.16;10127704;29;20048;-79
2021/04/08 11:37:38;;;;;;;1.63;0.50;;;;;;;15.13;20.59;98299.44;10088076;29;20492;-77
2021/04/08 11:42:59;;;;;;;2.50;0.60;;;;;;;15.51;22.14;98303.75;10112392;29;20041;-79
2021/04/08 11:48:19;;;;;;;2.42;0.65;;;;;;;15.66;21.01;98294.78;10122880;29;20048;-78
2021/04/08 11:53:41;;;;;;;3.25;1.00;;;;;;;14.77;20.72;98293.13;10085043;29;20052;-77
2021/04/08 11:59:21;;;;;;;2.25;0.63;;;;;;;14.19;20.97;98295.88;10102825;29;20052;-79
2021/04/08 12:04:50;;;;;;;1.83;0.50;;;;;;;12.39;21.92;98302.31;10099986;29;20631;-77
2021/04/08 12:10:25;;;;;;;2.42;0.40;;;;;;;12.06;22.50;98305.63;10104342;29;20044;-78
2021/04/08 12:15:46;;;;;;;1.92;0.43;;;;;;;12.42;23.01;98310.22;10112570;29;20040;-77
2021/04/08 12:21:11;;;;;;;2.63;0.50;;;;;;;13.11;22.69;98305.75;10095960;29;20489;-79
2021/04/08 12:26:36;;;;;;;2.42;0.55;;;;;;;12.60;22.76;98325.50;10103062;29;20045;-77
2021/04/08 12:31:56;;;;;;;2.88;0.75;;;;;;;11.07;23.52;98339.00;10103337;29;20056;-77
2021/04/08 12:37:16;;;;;;;2.47;0.40;;;;;;;10.40;25.28;98322.75;10115976;29;20049;-77
2021/04/08 12:42:36;;;;;;;3.38;0.50;;;;;;;10.90;25.88;98325.13;10090071;29;20119;-78
2021/04/08 12:47:55;;;;;;;2.72;0.70;;;;;;;12.01;26.15;98317.88;10102360;29;20841;-79
2021/04/08 12:53:16;;;;;;;4.22;0.68;;;;;;;11.80;26.06;98310.09;10103290;29;20064;-77
2021/04/08 12:58:36;;;;;;;1.98;0.70;;;;;;;10.95;26.62;98307.38;10115191;29;20553;-79
2021/04/08 13:03:56;;;;;;;1.45;0.55;;;;;;;10.94;26.79;98308.69;10116702;29;20083;-77
2021/04/08 13:09:18;;;;;;;7.78;0.80;;;;;;;10.83;27.00;98306.47;10102278;29;20067;-77
2021/04/08 13:14:38;;;;;;;3.00;0.70;;;;;;;10.64;27.65;98323.16;10112986;29;20048;-78
2021/04/08 13:19:58;;;;;;;2.97;0.82;;;;;;;10.23;29.00;98328.38;10099753;29;20048;-78
2021/04/08 13:25:18;;;;;;;3.75;0.50;;;;;;;9.70;31.74;98332.56;10113080;29;20056;-77
2021/04/08 13:30:39;;;;;;;2.38;0.60;;;;;;;9.22;33.74;98349.59;10112822;29;20051;-78
2021/04/08 13:35:59;;;;;;;1.95;0.45;;;;;;;9.30;31.80;98347.47;10111601;29;20040;-78
2021/04/08 13:41:18;;;;;;;2.45;0.50;;;;;;;10.06;31.96;98342.38;10099204;29;20052;-78
2021/04/08 13:46:38;;;;;;;1.40;0.47;;;;;;;11.57;30.65;98335.66;10114206;29;20059;-78
2021/04/08 13:51:59;;;;;;;1.85;0.30;;;;;;;11.85;29.26;98341.88;10141160;29;20104;-79
2021/04/08 13:57:19;;;;;;;0.73;0.30;;;;;;;11.26;29.95;98340.34;10128009;29;20056;-78
2021/04/08 14:02:40;;;;;;;2.38;0.43;;;;;;;10.93;29.77;98334.41;10151827;29;20407;-78
2021/04/08 14:08:00;;;;;;;2.83;0.40;;;;;;;10.34;29.61;98335.50;10163872;29;20043;-77
2021/04/08 14:13:20;;;;;;;1.35;0.25;;;;;;;9.64;30.04;98326.50;10161252;29;20036;-77
2021/04/08 14:18:40;;;;;;;2.83;0.70;;;;;;;9.57;30.68;98327.34;10148742;29;20044;-77
2021/04/08 14:24:00;;;;;;;1.20;0.43;;;;;;;9.73;30.61;98331.41;10104628;29;20044;-78
2021/04/08 14:29:20;;;;;;;1.55;0.40;;;;;;;9.53;30.11;98343.72;10109048;29;20454;-78
2021/04/08 14:34:40;;;;;;;1.02;0.38;;;;;;;9.42;30.33;98334.53;10122575;29;20481;-77
2021/04/08 14:40:01;;;;;;;1.75;0.60;;;;;;;9.31;29.89;98318.31;10108511;29;20477;-76
2021/04/08 14:45:21;;;;;;;1.10;0.40;;;;;;;8.78;30.21;98329.94;10096364;29;20048;-77
2021/04/08 14:50:41;;;;;;;3.17;0.47;;;;;;;8.78;30.37;98316.00;10121017;29;20064;-74
2021/04/08 14:56:01;;;;;;;1.48;0.43;;;;;;;8.48;30.61;98333.69;10108409;29;20044;-77
2021/04/08 15:01:21;;;;;;;2.60;0.63;;;;;;;8.75;31.03;98329.03;10134555;29;20472;-80
2021/04/08 15:06:40;;;;;;;2.53;0.70;;;;;;;9.03;30.86;98332.69;10107922;29;20048;-80
2021/04/08 15:12:00;;;;;;;2.10;0.75;;;;;;;8.92;30.63;98344.31;10115813;29;20048;-80
2021/04/08 15:17:20;;;;;;;3.50;0.50;;;;;;;8.62;31.01;98328.59;10115458;29;20052;-79
2021/04/08 15:22:41;;;;;;;3.35;0.50;;;;;;;8.73;30.95;98320.50;10089612;29;20100;-79
2021/04/08 15:28:01;;;;;;;2.05;0.50;;;;;;;9.15;31.27;98331.66;10116285;29;20052;-78
2021/04/08 15:33:21;;;;;;;1.98;0.60;;;;;;;9.36;30.91;98333.28;10114396;29;20037;-76
2021/04/08 15:38:41;;;;;;;2.28;0.50;;;;;;;9.05;31.03;98330.06;10087934;29;20048;-75
2021/04/08 15:44:01;;;;;;;4.22;0.50;;;;;;;8.93;31.55;98343.00;10113358;29;20049;-75
2021/04/08 15:49:21;;;;;;;2.42;0.50;;;;;;;9.00;31.37;98347.78;10113236;29;20081;-78
2021/04/08 15:54:42;;;;;;;1.58;0.50;;;;;;;9.26;31.13;98351.97;10087710;29;20052;-76
2021/04/08 16:00:02;;;;;;;1.92;0.47;;;;;;;9.42;31.01;98344.94;10100715;29;20044;-78
2021/04/08 16:05:24;;;;;;;3.40;0.63;;;;;;;9.39;30.93;98348.88;10101111;29;20049;-76
2021/04/08 16:10:44;;;;;;;2.35;0.80;;;;;;;9.01;30.75;98343.69;10074598;29;20049;-78
2021/04/08 16:16:05;;;;;;;4.53;0.82;;;;;;;8.71;31.43;98350.97;10086835;29;20040;-76
2021/04/08 16:21:26;;;;;;;2.47;0.80;;;;;;;8.42;31.46;98363.78;10098446;29;20048;-75
2021/04/08 16:26:46;;;;;;;2.28;0.50;;;;;;;8.43;31.68;98359.69;10111581;29;20048;-77
2021/04/08 16:32:06;;;;;;;2.88;1.67;;;;;;;8.41;31.78;98365.09;10098060;29;20044;-75
2021/04/08 16:37:26;;;;;;;2.95;0.88;;;;;;;8.27;31.52;98359.75;10084909;29;20067;-74
2021/04/08 16:42:45;;;;;;;1.52;0.50;;;;;;;7.97;31.73;98371.03;10110860;29;20096;-76
2021/04/08 16:48:06;;;;;;;3.38;0.63;;;;;;;7.65;32.31;98364.09;10085737;29;20049;-75
2021/04/08 16:53:25;;;;;;;3.53;0.80;;;;;;;7.51;32.43;98371.16;10110071;29;20076;-77
2021/04/08 16:58:45;;;;;;;2.75;0.70;;;;;;;7.53;32.63;98368.59;10097598;29;20081;-75
2021/04/08 17:04:05;;;;;;;1.48;0.55;;;;;;;7.39;32.89;98358.97;10108413;29;20567;-79
2021/04/08 17:09:24;;;;;;;2.33;0.60;;;;;;;7.13;33.19;98380.28;10071308;29;20044;-75
2021/04/08 17:14:50;;;;;;;3.05;0.80;;;;;;;6.80;33.42;98379.38;10122756;29;20049;-76
2021/04/08 17:20:12;;;;;;;1.70;0.70;;;;;;;6.61;33.25;98384.53;10085734;29;20052;-75
2021/04/08 17:25:32;;;;;;;2.22;0.90;;;;;;;6.63;33.20;98393.03;10096061;29;20420;-75
2021/04/08 17:30:52;;;;;;;2.25;0.80;;;;;;;6.25;33.64;98385.38;10082952;29;20055;-75
2021/04/08 17:36:11;;;;;;;2.13;0.80;;;;;;;6.07;33.71;98385.69;10121348;29;20048;-76
2021/04/08 17:41:31;;;;;;;3.15;1.00;;;;;;;5.61;34.90;98383.44;10096060;29;20104;-76
2021/04/08 17:46:51;;;;;;;4.40;1.35;;;;;;;5.20;34.96;98389.06;10083393;29;20104;-79
2021/04/08 17:52:11;;;;;;;3.85;0.73;;;;;;;4.95;35.01;98386.69;10108983;29;20076;-77
2021/04/08 17:57:32;;;;;;;3.78;1.05;;;;;;;4.83;35.46;98400.06;10082668;29;20040;-77
2021/04/08 18:02:53;;;;;;;2.25;1.20;;;;;;;4.83;34.89;98413.16;10095977;29;20408;-79
2021/04/08 18:08:13;;;;;;;3.67;1.25;;;;;;;4.83;36.05;98407.63;10108668;29;20131;-77
2021/04/08 18:13:33;;;;;;;4.68;2.30;;;;;;;4.76;35.85;98409.03;10096524;29;20052;-79
2021/04/08 18:18:56;;;;;;;4.88;1.58;;;;;;;4.62;36.46;98412.38;10098179;29;20052;-75
2021/04/08 18:24:16;;;;;;;3.63;1.42;;;;;;;4.42;36.25;98411.81;10096618;29;20044;-77
2021/04/08 18:29:36;;;;;;;3.80;2.00;;;;;;;4.27;36.79;98417.19;10110305;29;20401;-76
2021/04/08 18:34:57;;;;;;;3.65;1.77;;;;;;;4.08;37.30;98419.38;10099399;29;20049;-77
2021/04/08 18:40:17;;;;;;;4.93;2.10;;;;;;;3.97;38.07;98436.94;10098728;29;20045;-76
2021/04/08 18:45:37;;;;;;;4.75;1.80;;;;;;;3.84;38.12;98440.44;10117710;29;20488;-76
2021/04/08 18:50:58;;;;;;;3.78;2.03;;;;;;;3.76;38.43;98433.31;10119804;29;20116;-76
2021/04/08 18:56:20;;;;;;;4.15;2.25;;;;;;;3.64;38.77;98432.78;10132133;29;20401;-76
2021/04/08 19:01:40;;;;;;;6.30;2.22;;;;;;;3.56;38.62;98442.97;10117423;29;20525;-76
2021/04/08 19:07:02;;;;;;;6.40;2.25;;;;;;;3.49;38.87;98427.81;10103138;29;20052;-76
2021/04/08 19:12:23;;;;;;;5.25;2.50;;;;;;;3.44;38.93;98440.44;10116390;29;20044;-77
2021/04/08 19:17:46;;;;;;;6.37;3.30;;;;;;;3.38;39.28;98428.03;10116633;29;20036;-75
2021/04/08 19:23:06;;;;;;;12.45;5.40;;;;;;;3.32;40.52;98435.66;10102566;29;20693;-76
2021/04/08 19:28:26;;;;;;;10.93;5.30;;;;;;;3.26;40.31;98435.75;10113608;29;20100;-76
2021/04/08 19:33:47;;;;;;;7.50;4.35;;;;;;;3.19;40.04;98444.66;10117731;29;20052;-77
2021/04/08 19:39:08;;;;;;;6.35;2.85;;;;;;;3.12;40.15;98437.00;10090251;29;20045;-76
2021/04/08 19:44:29;;;;;;;4.93;2.08;;;;;;;3.08;40.57;98437.28;10088784;29;20048;-75
2021/04/08 19:49:48;;;;;;;5.93;2.50;;;;;;;3.07;40.79;98427.53;10101621;29;20052;-78
2021/04/08 19:55:11;;;;;;;4.55;2.45;;;;;;;3.02;40.51;98431.16;10086767;29;20068;-76
2021/04/08 20:00:32;;;;;;;4.10;2.40;;;;;;;2.94;41.33;98430.28;10088189;29;20044;-76
2021/04/08 20:05:52;;;;;;;4.50;2.30;;;;;;;2.91;40.80;98430.59;10086674;29;20060;-76
2021/04/08 20:11:12;;;;;;;7.43;2.08;;;;;;;2.87;41.85;98426.09;10126865;29;20108;-76
2021/04/08 20:16:32;;;;;;;5.32;2.00;;;;;;;2.86;41.92;98418.38;10113485;29;20041;-76
2021/04/08 20:21:54;;;;;;;6.00;2.30;;;;;;;2.82;41.98;98417.94;10114313;29;20049;-78
2021/04/08 20:27:14;;;;;;;6.25;2.05;;;;;;;2.75;41.67;98430.31;10114402;29;20044;-79
2021/04/08 20:32:35;;;;;;;7.15;2.95;;;;;;;2.70;42.42;98427.63;10110772;29;20053;-77
2021/04/08 20:37:57;;;;;;;14.43;8.10;;;;;;;2.67;42.75;98420.44;10087663;29;20060;-77
2021/04/08 20:43:17;;;;;;;11.07;7.13;;;;;;;2.64;42.03;98427.75;10111257;29;20381;-77
2021/04/08 20:48:42;;;;;;;10.73;5.85;;;;;;;2.64;42.32;98424.25;10111680;29;20045;-79
2021/04/08 20:54:01;;;;;;;9.40;4.78;;;;;;;2.62;42.77;98429.53;10098311;29;20511;-79
2021/04/08 20:59:21;;;;;;;9.27;4.68;;;;;;;2.58;42.71;98425.06;10090484;29;20407;-80
2021/04/08 21:04:41;;;;;;;9.30;4.32;;;;;;;2.50;43.12;98421.41;10109545;29;20053;-79
2021/04/08 21:10:01;;;;;;;9.00;4.35;;;;;;;2.41;43.00;98424.56;10109774;29;20049;-78
2021/04/08 21:15:21;;;;;;;11.48;3.63;;;;;;;2.34;44.43;98425.19;10085125;29;20045;-78
2021/04/08 21:20:40;;;;;;;8.15;3.80;;;;;;;2.28;43.42;98421.75;10100885;29;20041;-77
2021/04/08 21:26:00;;;;;;;9.45;4.38;;;;;;;2.22;43.61;98415.56;10075174;29;20073;-76
2021/04/08 21:31:20;;;;;;;10.75;4.85;;;;;;;2.16;44.17;98412.16;10072969;29;20482;-78
2021/04/08 21:36:40;;;;;;;8.27;4.70;;;;;;;2.10;44.43;98411.47;10071487;29;20049;-78
2021/04/08 21:41:59;;;;;;;9.40;4.18;;;;;;;2.06;44.47;98422.06;10085162;29;20537;-78
2021/04/08 21:47:19;;;;;;;8.18;4.25;;;;;;;2.00;44.44;98420.09;10085618;29;20041;-78
2021/04/08 21:52:40;;;;;;;7.43;4.03;;;;;;;1.98;44.41;98411.63;10086464;29;20185;-80
2021/04/08 21:57:59;;;;;;;10.20;4.00;;;;;;;1.96;45.22;98413.41;10073282;29;20056;-78
2021/04/08 22:03:19;;;;;;;9.50;4.43;;;;;;;1.91;45.10;98417.72;10073304;29;20513;-78
2021/04/08 22:08:39;;;;;;;7.65;4.40;;;;;;;1.86;44.94;98415.78;10086315;29;20052;-78
2021/04/08 22:13:59;;;;;;;11.48;4.22;;;;;;;1.82;45.23;98407.06;10073541;29;20065;-78
2021/04/08 22:19:18;;;;;;;7.18;3.90;;;;;;;1.80;45.32;98412.34;10089203;29;20049;-78
2021/04/08 22:24:38;;;;;;;9.75;4.47;;;;;;;1.76;45.96;98398.16;10093224;29;20243;-78
2021/04/08 22:30:08;;;;;;;7.63;3.90;;;;;;;1.72;45.68;98389.44;10093552;29;20053;-78
2021/04/08 22:35:27;;;;;;;7.50;3.78;;;;;;;1.71;46.88;98393.44;10068154;29;20044;-78
2021/04/08 22:40:47;;;;;;;8.88;4.05;;;;;;;1.69;46.37;98393.22;10093100;29;20098;-78
2021/04/08 22:46:06;;;;;;;10.38;3.78;;;;;;;1.65;45.94;98387.28;10093597;29;20048;-78
2021/04/08 22:51:26;;;;;;;11.35;3.45;;;;;;;1.58;46.21;98385.09;10079741;29;20060;-77
2021/04/08 22:56:46;;;;;;;9.68;3.72;;;;;;;1.47;46.68;98371.47;10079784;29;20389;-78
2021/04/08 23:02:22;;;;;;;8.98;3.92;;;;;;;1.42;46.62;98368.25;10092503;29;20045;-79
2021/04/08 23:07:57;;;;;;;6.28;3.50;;;;;;;1.42;46.83;98371.00;10082606;29;20462;-78
2021/04/08 23:13:17;;;;;;;8.07;3.67;;;;;;;1.37;47.47;98365.59;10079716;29;20504;-78
2021/04/08 23:18:37;;;;;;;10.25;3.70;;;;;;;1.35;47.03;98357.84;10078811;29;20093;-78
2021/04/08 23:23:57;;;;;;;11.90;4.35;;;;;;;1.26;47.54;98357.47;10091623;29;20045;-78
2021/04/08 23:29:17;;;;;;;10.88;4.28;;;;;;;1.22;47.25;98346.75;10077094;29;20049;-78
2021/04/08 23:34:39;;;;;;;8.18;3.30;;;;;;;1.18;47.77;98349.03;10092250;29;20080;-78
2021/04/08 23:39:59;;;;;;;4.85;2.88;;;;;;;1.13;47.52;98327.84;10078369;29;20442;-78
2021/04/08 23:45:19;;;;;;;12.75;3.42;;;;;;;1.10;48.05;98339.88;10078566;29;20053;-78
2021/04/08 23:50:39;;;;;;;7.38;3.47;;;;;;;1.08;48.28;98336.91;10078162;29;20064;-78
2021/04/08 23:55:59;;;;;;;7.78;3.85;;;;;;;1.04;48.56;98328.94;10090776;29;20075;-78
